Aérodrome :
LOGIN :

S'inscrire | Disclaimer

   EN    FR    IT 

 










Légende :    VFR   VFR Marginal   IFR   IFR Intensif   IFR Très Intensif
Visi : 
Plafond : 
>= 8 km
>= 3000ft
5 à 8 km
1000 à 3000 ft
1500m à 5 km
500 à 1000 ft
800 à 1500m
200 à 500 ft
< 800m
< 200 ft
Symboles :   Orages  Brouillard  Fortes neiges  Fortes précipitations  Vent > 20 kt
SIGMETs :   Divers  Orages  Givrage  Turbulence  Onde Orograph.  Cendres Volcan.







- Altitude de l'aérodrome : 1504 ft
- Code IATA : PNA


LEPP - Noain Pamplona

DERNIER METAR :
  • 230600Z 00000KT CAVOK 01/M01 Q1028

METARs EXPIRÉS :
  • 230530Z 17001KT CAVOK 00/M01 Q1028
  • 230500Z VRB01KT CAVOK 01/M01 Q1028
  • 230430Z 17002KT CAVOK 01/M01 Q1028
  • 230400Z AUTO 16002KT 7000 NCD 02/M00 Q1028
  • 230330Z AUTO VRB01KT 6000 NCD 02/M01 Q1028

TAF AMD TAF LEPP
Valide du 23 à 05h jusqu'au 24 à 03h UTC


230505Z 2305/2403 VRB06KT CAVOK TX19/2314Z TNM01/2306Z
BECMG 2310/2312 35010KT
PROB40 2312/2318 34015G25KT
BECMG 2318/2320 VRB06KT
Pas de NOTAMs connus pour ce terrain.



MET'MAP, la Météo Aéronautique d'un coup d'oeil ! - Copyright ORBIFLY Décembre 2007 - Disclaimer

ORBIFLY MET'MAP TEAM :

Programmation & Développement : Alexandra Zaïnal
Conception & Développement : Baudouin d'Aumeries
Co-Programmation & Développement : Marc-Olivier Méhu
Soutien technique & logistique : Manuel Goepfert

Contact : metmap@orbifly.com




SOURCES & CREDITS :

   NOAA